sensor_id;sensor_type;location;lat;lon;timestamp;P1;durP1;ratioP1;P2;durP2;ratioP2
10717;SDS011;13513;42.700;23.124;2023-03-01T00:00:51;7.23;;;5.83;;
10717;SDS011;13513;42.700;23.124;2023-03-01T00:03:22;6.93;;;5.70;;
10717;SDS011;13513;42.700;23.124;2023-03-01T00:05:53;8.40;;;5.63;;
10717;SDS011;13513;42.700;23.124;2023-03-01T00:08:24;6.77;;;4.47;;
10717;SDS011;13513;42.700;23.124;2023-03-01T00:11:10;7.07;;;4.87;;
10717;SDS011;13513;42.700;23.124;2023-03-01T00:13:42;7.60;;;5.27;;
10717;SDS011;13513;42.700;23.124;2023-03-01T00:16:14;7.90;;;5.70;;
10717;SDS011;13513;42.700;23.124;2023-03-01T00:18:45;7.73;;;4.93;;
10717;SDS011;13513;42.700;23.124;2023-03-01T00:21:14;7.20;;;4.43;;
10717;SDS011;13513;42.700;23.124;2023-03-01T00:23:45;6.20;;;4.47;;
10717;SDS011;13513;42.700;23.124;2023-03-01T00:26:17;6.40;;;5.10;;
10717;SDS011;13513;42.700;23.124;2023-03-01T00:28:48;6.37;;;5.17;;
10717;SDS011;13513;42.700;23.124;2023-03-01T00:31:21;6.93;;;5.57;;
10717;SDS011;13513;42.700;23.124;2023-03-01T00:33:54;6.23;;;4.97;;
10717;SDS011;13513;42.700;23.124;2023-03-01T00:36:26;7.00;;;5.47;;
10717;SDS011;13513;42.700;23.124;2023-03-01T00:38:57;8.53;;;5.97;;
10717;SDS011;13513;42.700;23.124;2023-03-01T00:41:29;14.53;;;10.40;;
10717;SDS011;13513;42.700;23.124;2023-03-01T00:43:59;14.80;;;9.97;;
10717;SDS011;13513;42.700;23.124;2023-03-01T00:46:30;18.07;;;14.60;;
10717;SDS011;13513;42.700;23.124;2023-03-01T00:49:01;18.57;;;15.00;;
10717;SDS011;13513;42.700;23.124;2023-03-01T00:51:32;20.10;;;14.53;;
10717;SDS011;13513;42.700;23.124;2023-03-01T00:54:02;16.63;;;12.70;;
10717;SDS011;13513;42.700;23.124;2023-03-01T00:56:33;11.47;;;8.60;;
10717;SDS011;13513;42.700;23.124;2023-03-01T00:59:04;12.07;;;10.33;;
10717;SDS011;13513;42.700;23.124;2023-03-01T01:01:35;9.03;;;7.77;;
10717;SDS011;13513;42.700;23.124;2023-03-01T01:04:08;9.03;;;7.43;;
10717;SDS011;13513;42.700;23.124;2023-03-01T01:06:42;7.47;;;5.50;;
10717;SDS011;13513;42.700;23.124;2023-03-01T01:09:16;6.53;;;5.17;;
10717;SDS011;13513;42.700;23.124;2023-03-01T01:11:48;6.20;;;5.53;;
10717;SDS011;13513;42.700;23.124;2023-03-01T01:14:20;5.20;;;4.63;;
10717;SDS011;13513;42.700;23.124;2023-03-01T01:16:50;4.87;;;4.33;;
10717;SDS011;13513;42.700;23.124;2023-03-01T01:19:21;5.90;;;4.80;;
10717;SDS011;13513;42.700;23.124;2023-03-01T01:21:52;8.67;;;5.20;;
10717;SDS011;13513;42.700;23.124;2023-03-01T01:24:23;6.17;;;4.27;;
10717;SDS011;13513;42.700;23.124;2023-03-01T01:26:53;6.60;;;3.77;;
10717;SDS011;13513;42.700;23.124;2023-03-01T01:29:24;4.47;;;3.90;;
10717;SDS011;13513;42.700;23.124;2023-03-01T01:31:56;9.37;;;5.93;;
10717;SDS011;13513;42.700;23.124;2023-03-01T01:34:27;6.57;;;4.47;;
10717;SDS011;13513;42.700;23.124;2023-03-01T01:36:57;3.83;;;2.90;;
10717;SDS011;13513;42.700;23.124;2023-03-01T01:39:28;6.40;;;3.70;;
10717;SDS011;13513;42.700;23.124;2023-03-01T01:41:57;2.77;;;2.50;;
10717;SDS011;13513;42.700;23.124;2023-03-01T01:44:29;6.87;;;4.97;;
10717;SDS011;13513;42.700;23.124;2023-03-01T01:49:33;3.60;;;3.30;;
10717;SDS011;13513;42.700;23.124;2023-03-01T01:52:11;3.53;;;3.00;;
10717;SDS011;13513;42.700;23.124;2023-03-01T01:54:43;3.43;;;3.00;;
10717;SDS011;13513;42.700;23.124;2023-03-01T01:57:14;3.50;;;2.80;;
10717;SDS011;13513;42.700;23.124;2023-03-01T01:59:49;2.70;;;2.50;;
10717;SDS011;13513;42.700;23.124;2023-03-01T02:02:19;2.83;;;2.63;;
10717;SDS011;13513;42.700;23.124;2023-03-01T02:04:49;3.93;;;2.63;;
10717;SDS011;13513;42.700;23.124;2023-03-01T02:07:22;3.50;;;3.20;;
10717;SDS011;13513;42.700;23.124;2023-03-01T02:09:53;3.10;;;2.80;;
10717;SDS011;13513;42.700;23.124;2023-03-01T02:12:24;2.77;;;2.40;;
10717;SDS011;13513;42.700;23.124;2023-03-01T02:14:55;3.10;;;2.80;;
10717;SDS011;13513;42.700;23.124;2023-03-01T02:17:26;2.50;;;2.30;;
10717;SDS011;13513;42.700;23.124;2023-03-01T02:19:59;3.30;;;3.00;;
10717;SDS011;13513;42.700;23.124;2023-03-01T02:22:29;4.33;;;2.77;;
10717;SDS011;13513;42.700;23.124;2023-03-01T02:27:41;4.03;;;2.70;;
10717;SDS011;13513;42.700;23.124;2023-03-01T02:30:27;3.00;;;2.70;;
10717;SDS011;13513;42.700;23.124;2023-03-01T02:32:58;2.87;;;2.53;;
10717;SDS011;13513;42.700;23.124;2023-03-01T02:35:32;2.67;;;2.47;;
10717;SDS011;13513;42.700;23.124;2023-03-01T02:38:03;3.90;;;3.50;;
10717;SDS011;13513;42.700;23.124;2023-03-01T02:40:35;3.07;;;2.70;;
10717;SDS011;13513;42.700;23.124;2023-03-01T02:43:07;3.70;;;3.17;;
10717;SDS011;13513;42.700;23.124;2023-03-01T02:45:43;4.27;;;2.73;;
10717;SDS011;13513;42.700;23.124;2023-03-01T02:48:20;2.80;;;2.47;;
10717;SDS011;13513;42.700;23.124;2023-03-01T02:50:52;2.77;;;2.17;;
10717;SDS011;13513;42.700;23.124;2023-03-01T02:53:39;1.83;;;1.53;;
10717;SDS011;13513;42.700;23.124;2023-03-01T02:56:23;2.50;;;2.10;;
10717;SDS011;13513;42.700;23.124;2023-03-01T02:58:54;2.20;;;2.00;;
10717;SDS011;13513;42.700;23.124;2023-03-01T03:01:26;3.37;;;2.17;;
10717;SDS011;13513;42.700;23.124;2023-03-01T03:03:59;3.43;;;1.60;;
10717;SDS011;13513;42.700;23.124;2023-03-01T03:06:30;1.20;;;1.20;;
10717;SDS011;13513;42.700;23.124;2023-03-01T03:09:01;2.23;;;2.00;;
10717;SDS011;13513;42.700;23.124;2023-03-01T03:11:33;2.50;;;2.00;;
10717;SDS011;13513;42.700;23.124;2023-03-01T03:14:16;1.90;;;1.40;;
10717;SDS011;13513;42.700;23.124;2023-03-01T03:16:41;2.13;;;1.93;;
10717;SDS011;13513;42.700;23.124;2023-03-01T03:19:13;1.93;;;1.73;;
10717;SDS011;13513;42.700;23.124;2023-03-01T03:21:44;2.37;;;2.17;;
10717;SDS011;13513;42.700;23.124;2023-03-01T03:24:15;2.30;;;2.10;;
10717;SDS011;13513;42.700;23.124;2023-03-01T03:26:46;2.40;;;1.50;;
10717;SDS011;13513;42.700;23.124;2023-03-01T03:29:16;1.90;;;1.57;;
10717;SDS011;13513;42.700;23.124;2023-03-01T03:31:47;2.00;;;1.80;;
10717;SDS011;13513;42.700;23.124;2023-03-01T03:34:17;1.63;;;1.53;;
10717;SDS011;13513;42.700;23.124;2023-03-01T03:36:53;2.00;;;1.70;;
10717;SDS011;13513;42.700;23.124;2023-03-01T03:39:25;2.47;;;2.10;;
10717;SDS011;13513;42.700;23.124;2023-03-01T03:41:56;2.13;;;1.80;;
10717;SDS011;13513;42.700;23.124;2023-03-01T03:44:27;3.17;;;1.87;;
10717;SDS011;13513;42.700;23.124;2023-03-01T03:46:57;2.20;;;1.90;;
10717;SDS011;13513;42.700;23.124;2023-03-01T03:49:28;2.30;;;2.10;;
10717;SDS011;13513;42.700;23.124;2023-03-01T03:51:59;2.10;;;1.90;;
10717;SDS011;13513;42.700;23.124;2023-03-01T03:54:30;3.87;;;2.63;;
10717;SDS011;13513;42.700;23.124;2023-03-01T03:57:02;2.73;;;2.03;;
10717;SDS011;13513;42.700;23.124;2023-03-01T03:59:49;2.50;;;2.27;;
10717;SDS011;13513;42.700;23.124;2023-03-01T04:02:20;2.70;;;2.50;;
10717;SDS011;13513;42.700;23.124;2023-03-01T04:04:50;2.30;;;2.10;;
10717;SDS011;13513;42.700;23.124;2023-03-01T04:07:21;2.67;;;2.33;;
10717;SDS011;13513;42.700;23.124;2023-03-01T04:09:52;2.40;;;2.20;;
10717;SDS011;13513;42.700;23.124;2023-03-01T04:12:23;2.50;;;2.30;;
10717;SDS011;13513;42.700;23.124;2023-03-01T04:14:54;3.43;;;1.93;;
10717;SDS011;13513;42.700;23.124;2023-03-01T04:17:25;2.50;;;1.93;;
10717;SDS011;13513;42.700;23.124;2023-03-01T04:19:56;2.80;;;2.23;;
10717;SDS011;13513;42.700;23.124;2023-03-01T04:22:27;2.27;;;2.07;;
10717;SDS011;13513;42.700;23.124;2023-03-01T04:24:58;1.27;;;1.17;;
10717;SDS011;13513;42.700;23.124;2023-03-01T04:27:29;2.00;;;1.80;;
10717;SDS011;13513;42.700;23.124;2023-03-01T04:29:59;4.47;;;2.50;;
10717;SDS011;13513;42.700;23.124;2023-03-01T04:32:31;2.40;;;2.20;;
10717;SDS011;13513;42.700;23.124;2023-03-01T04:35:01;2.70;;;1.80;;
10717;SDS011;13513;42.700;23.124;2023-03-01T04:37:31;2.70;;;2.20;;
10717;SDS011;13513;42.700;23.124;2023-03-01T04:40:02;2.30;;;2.10;;
10717;SDS011;13513;42.700;23.124;2023-03-01T04:42:33;2.43;;;2.20;;
10717;SDS011;13513;42.700;23.124;2023-03-01T04:45:04;3.53;;;2.43;;
10717;SDS011;13513;42.700;23.124;2023-03-01T04:47:36;2.60;;;2.23;;
10717;SDS011;13513;42.700;23.124;2023-03-01T04:50:06;1.90;;;1.77;;
10717;SDS011;13513;42.700;23.124;2023-03-01T04:52:37;3.07;;;1.77;;
10717;SDS011;13513;42.700;23.124;2023-03-01T04:55:06;2.83;;;2.23;;
10717;SDS011;13513;42.700;23.124;2023-03-01T04:57:38;4.83;;;1.90;;
10717;SDS011;13513;42.700;23.124;2023-03-01T05:00:09;3.33;;;2.77;;
10717;SDS011;13513;42.700;23.124;2023-03-01T05:02:56;4.47;;;3.00;;
10717;SDS011;13513;42.700;23.124;2023-03-01T05:05:36;4.60;;;2.97;;
10717;SDS011;13513;42.700;23.124;2023-03-01T05:08:03;5.50;;;3.37;;
10717;SDS011;13513;42.700;23.124;2023-03-01T05:10:38;5.67;;;3.70;;
10717;SDS011;13513;42.700;23.124;2023-03-01T05:13:09;6.20;;;3.13;;
10717;SDS011;13513;42.700;23.124;2023-03-01T05:15:39;3.97;;;3.23;;
10717;SDS011;13513;42.700;23.124;2023-03-01T05:18:10;6.30;;;2.90;;
10717;SDS011;13513;42.700;23.124;2023-03-01T05:20:44;7.70;;;3.33;;
10717;SDS011;13513;42.700;23.124;2023-03-01T05:23:15;4.60;;;2.57;;
10717;SDS011;13513;42.700;23.124;2023-03-01T05:25:48;3.30;;;3.00;;
10717;SDS011;13513;42.700;23.124;2023-03-01T05:28:19;3.70;;;2.87;;
10717;SDS011;13513;42.700;23.124;2023-03-01T05:30:50;6.47;;;4.20;;
10717;SDS011;13513;42.700;23.124;2023-03-01T05:33:20;5.10;;;3.53;;
10717;SDS011;13513;42.700;23.124;2023-03-01T05:35:52;7.87;;;4.07;;
10717;SDS011;13513;42.700;23.124;2023-03-01T05:38:21;6.50;;;3.53;;
10717;SDS011;13513;42.700;23.124;2023-03-01T05:40:52;12.37;;;5.93;;
10717;SDS011;13513;42.700;23.124;2023-03-01T05:43:23;5.87;;;4.20;;
10717;SDS011;13513;42.700;23.124;2023-03-01T05:45:54;7.83;;;3.87;;
10717;SDS011;13513;42.700;23.124;2023-03-01T05:48:26;4.60;;;3.93;;
10717;SDS011;13513;42.700;23.124;2023-03-01T05:50:58;10.23;;;4.27;;
10717;SDS011;13513;42.700;23.124;2023-03-01T05:53:33;12.53;;;6.53;;
10717;SDS011;13513;42.700;23.124;2023-03-01T05:56:04;8.77;;;4.97;;
10717;SDS011;13513;42.700;23.124;2023-03-01T05:58:35;6.17;;;4.23;;
10717;SDS011;13513;42.700;23.124;2023-03-01T06:01:05;6.90;;;4.70;;
10717;SDS011;13513;42.700;23.124;2023-03-01T06:03:36;5.90;;;4.27;;
10717;SDS011;13513;42.700;23.124;2023-03-01T06:06:07;5.43;;;3.90;;
10717;SDS011;13513;42.700;23.124;2023-03-01T06:08:38;4.27;;;3.03;;
10717;SDS011;13513;42.700;23.124;2023-03-01T06:11:08;3.07;;;2.77;;
10717;SDS011;13513;42.700;23.124;2023-03-01T06:13:39;5.50;;;3.80;;
10717;SDS011;13513;42.700;23.124;2023-03-01T06:16:10;3.83;;;3.37;;
10717;SDS011;13513;42.700;23.124;2023-03-01T06:18:40;4.13;;;3.17;;
10717;SDS011;13513;42.700;23.124;2023-03-01T06:21:11;3.93;;;3.13;;
10717;SDS011;13513;42.700;23.124;2023-03-01T06:23:40;6.97;;;3.40;;
10717;SDS011;13513;42.700;23.124;2023-03-01T06:26:12;4.03;;;2.77;;
10717;SDS011;13513;42.700;23.124;2023-03-01T06:28:42;4.00;;;3.20;;
10717;SDS011;13513;42.700;23.124;2023-03-01T06:31:13;3.93;;;2.93;;
10717;SDS011;13513;42.700;23.124;2023-03-01T06:33:44;7.50;;;3.53;;
10717;SDS011;13513;42.700;23.124;2023-03-01T06:36:15;4.20;;;3.80;;
10717;SDS011;13513;42.700;23.124;2023-03-01T06:38:46;3.93;;;3.53;;
10717;SDS011;13513;42.700;23.124;2023-03-01T06:41:16;5.13;;;3.93;;
10717;SDS011;13513;42.700;23.124;2023-03-01T06:43:47;6.20;;;5.07;;
10717;SDS011;13513;42.700;23.124;2023-03-01T06:46:18;7.43;;;3.97;;
10717;SDS011;13513;42.700;23.124;2023-03-01T06:48:49;7.50;;;5.00;;
10717;SDS011;13513;42.700;23.124;2023-03-01T06:51:19;6.13;;;5.37;;
10717;SDS011;13513;42.700;23.124;2023-03-01T06:53:50;6.00;;;4.60;;
10717;SDS011;13513;42.700;23.124;2023-03-01T06:56:21;5.00;;;4.50;;
10717;SDS011;13513;42.700;23.124;2023-03-01T06:58:51;6.70;;;4.50;;
10717;SDS011;13513;42.700;23.124;2023-03-01T07:01:22;6.10;;;4.40;;
10717;SDS011;13513;42.700;23.124;2023-03-01T07:03:52;6.63;;;4.10;;
10717;SDS011;13513;42.700;23.124;2023-03-01T07:06:23;5.60;;;4.80;;
10717;SDS011;13513;42.700;23.124;2023-03-01T07:08:54;6.13;;;4.97;;
10717;SDS011;13513;42.700;23.124;2023-03-01T07:11:25;7.63;;;5.57;;
10717;SDS011;13513;42.700;23.124;2023-03-01T07:13:56;9.77;;;5.93;;
10717;SDS011;13513;42.700;23.124;2023-03-01T07:16:27;7.37;;;5.43;;
10717;SDS011;13513;42.700;23.124;2023-03-01T07:18:58;8.63;;;5.60;;
10717;SDS011;13513;42.700;23.124;2023-03-01T07:21:29;8.73;;;5.43;;
10717;SDS011;13513;42.700;23.124;2023-03-01T07:23:59;7.70;;;5.67;;
10717;SDS011;13513;42.700;23.124;2023-03-01T07:26:30;7.20;;;6.47;;
10717;SDS011;13513;42.700;23.124;2023-03-01T07:29:01;8.50;;;5.37;;
10717;SDS011;13513;42.700;23.124;2023-03-01T07:31:33;6.73;;;4.67;;
10717;SDS011;13513;42.700;23.124;2023-03-01T07:34:02;8.10;;;5.53;;
10717;SDS011;13513;42.700;23.124;2023-03-01T07:36:33;7.03;;;5.17;;
10717;SDS011;13513;42.700;23.124;2023-03-01T07:39:04;9.27;;;4.83;;
10717;SDS011;13513;42.700;23.124;2023-03-01T07:41:35;6.97;;;4.40;;
10717;SDS011;13513;42.700;23.124;2023-03-01T07:44:05;4.93;;;4.10;;
10717;SDS011;13513;42.700;23.124;2023-03-01T07:46:36;5.67;;;4.30;;
10717;SDS011;13513;42.700;23.124;2023-03-01T07:49:07;3.60;;;3.13;;
10717;SDS011;13513;42.700;23.124;2023-03-01T07:51:36;5.60;;;3.23;;
10717;SDS011;13513;42.700;23.124;2023-03-01T07:54:07;5.40;;;3.60;;
10717;SDS011;13513;42.700;23.124;2023-03-01T07:56:38;4.30;;;3.90;;
10717;SDS011;13513;42.700;23.124;2023-03-01T07:59:09;5.20;;;3.57;;
10717;SDS011;13513;42.700;23.124;2023-03-01T08:01:39;5.13;;;3.20;;
10717;SDS011;13513;42.700;23.124;2023-03-01T08:04:10;4.57;;;4.10;;
10717;SDS011;13513;42.700;23.124;2023-03-01T08:06:41;3.90;;;3.37;;
10717;SDS011;13513;42.700;23.124;2023-03-01T08:09:11;5.17;;;3.40;;
10717;SDS011;13513;42.700;23.124;2023-03-01T08:11:42;3.83;;;3.13;;
10717;SDS011;13513;42.700;23.124;2023-03-01T08:14:12;5.33;;;4.83;;
10717;SDS011;13513;42.700;23.124;2023-03-01T08:16:43;4.23;;;3.83;;
10717;SDS011;13513;42.700;23.124;2023-03-01T08:19:13;4.87;;;3.80;;
10717;SDS011;13513;42.700;23.124;2023-03-01T08:21:44;8.43;;;4.00;;
10717;SDS011;13513;42.700;23.124;2023-03-01T08:24:15;4.07;;;3.67;;
10717;SDS011;13513;42.700;23.124;2023-03-01T08:26:45;4.70;;;3.50;;
10717;SDS011;13513;42.700;23.124;2023-03-01T08:29:16;6.07;;;5.13;;
10717;SDS011;13513;42.700;23.124;2023-03-01T08:31:47;4.87;;;3.77;;
10717;SDS011;13513;42.700;23.124;2023-03-01T08:34:20;5.47;;;3.63;;
10717;SDS011;13513;42.700;23.124;2023-03-01T08:36:50;6.20;;;4.30;;
10717;SDS011;13513;42.700;23.124;2023-03-01T08:39:20;4.43;;;3.13;;
10717;SDS011;13513;42.700;23.124;2023-03-01T08:41:50;4.70;;;3.63;;
10717;SDS011;13513;42.700;23.124;2023-03-01T08:44:21;4.50;;;3.87;;
10717;SDS011;13513;42.700;23.124;2023-03-01T08:46:52;4.80;;;3.77;;
10717;SDS011;13513;42.700;23.124;2023-03-01T08:49:22;4.30;;;3.90;;
10717;SDS011;13513;42.700;23.124;2023-03-01T08:51:53;5.77;;;4.13;;
10717;SDS011;13513;42.700;23.124;2023-03-01T08:54:23;6.67;;;4.03;;
10717;SDS011;13513;42.700;23.124;2023-03-01T08:56:55;5.33;;;4.10;;
10717;SDS011;13513;42.700;23.124;2023-03-01T08:59:26;5.03;;;3.73;;
10717;SDS011;13513;42.700;23.124;2023-03-01T09:01:58;4.40;;;3.63;;
10717;SDS011;13513;42.700;23.124;2023-03-01T09:04:29;6.17;;;4.50;;
10717;SDS011;13513;42.700;23.124;2023-03-01T09:07:00;5.40;;;4.90;;
10717;SDS011;13513;42.700;23.124;2023-03-01T09:09:31;7.47;;;5.17;;
10717;SDS011;13513;42.700;23.124;2023-03-01T09:12:02;6.20;;;5.60;;
10717;SDS011;13513;42.700;23.124;2023-03-01T09:14:32;5.67;;;4.80;;
10717;SDS011;13513;42.700;23.124;2023-03-01T09:17:03;5.83;;;5.23;;
10717;SDS011;13513;42.700;23.124;2023-03-01T09:19:34;6.03;;;5.50;;
10717;SDS011;13513;42.700;23.124;2023-03-01T09:22:05;6.20;;;5.33;;
10717;SDS011;13513;42.700;23.124;2023-03-01T09:24:36;5.87;;;5.13;;
10717;SDS011;13513;42.700;23.124;2023-03-01T09:27:07;8.07;;;6.53;;
10717;SDS011;13513;42.700;23.124;2023-03-01T09:29:41;5.50;;;4.93;;
10717;SDS011;13513;42.700;23.124;2023-03-01T09:32:12;6.67;;;5.93;;
10717;SDS011;13513;42.700;23.124;2023-03-01T09:34:42;5.03;;;4.53;;
10717;SDS011;13513;42.700;23.124;2023-03-01T09:37:29;5.40;;;4.03;;
10717;SDS011;13513;42.700;23.124;2023-03-01T09:40:01;3.80;;;3.40;;
10717;SDS011;13513;42.700;23.124;2023-03-01T09:42:34;4.73;;;3.43;;
10717;SDS011;13513;42.700;23.124;2023-03-01T09:45:16;4.27;;;3.73;;
10717;SDS011;13513;42.700;23.124;2023-03-01T09:48:00;6.23;;;4.10;;
10717;SDS011;13513;42.700;23.124;2023-03-01T09:50:33;5.60;;;4.40;;
10717;SDS011;13513;42.700;23.124;2023-03-01T09:53:09;4.30;;;3.47;;
10717;SDS011;13513;42.700;23.124;2023-03-01T09:58:29;6.37;;;3.33;;
10717;SDS011;13513;42.700;23.124;2023-03-01T10:06:57;5.10;;;3.87;;
10717;SDS011;13513;42.700;23.124;2023-03-01T10:09:24;3.20;;;2.90;;
10717;SDS011;13513;42.700;23.124;2023-03-01T10:11:55;2.43;;;2.23;;
10717;SDS011;13513;42.700;23.124;2023-03-01T10:17:06;4.67;;;2.93;;
10717;SDS011;13513;42.700;23.124;2023-03-01T10:19:43;3.93;;;2.47;;
10717;SDS011;13513;42.700;23.124;2023-03-01T10:24:49;3.87;;;3.50;;
10717;SDS011;13513;42.700;23.124;2023-03-01T10:32:46;3.83;;;3.17;;
10717;SDS011;13513;42.700;23.124;2023-03-01T10:35:24;3.93;;;2.97;;
10717;SDS011;13513;42.700;23.124;2023-03-01T10:38:12;3.03;;;2.67;;
10717;SDS011;13513;42.700;23.124;2023-03-01T10:40:36;4.20;;;3.13;;
10717;SDS011;13513;42.700;23.124;2023-03-01T10:43:10;4.43;;;3.27;;
10717;SDS011;13513;42.700;23.124;2023-03-01T10:45:41;4.50;;;3.23;;
10717;SDS011;13513;42.700;23.124;2023-03-01T10:48:18;4.50;;;2.90;;
10717;SDS011;13513;42.700;23.124;2023-03-01T10:53:45;3.43;;;2.90;;
10717;SDS011;13513;42.700;23.124;2023-03-01T10:56:14;3.47;;;2.97;;
10717;SDS011;13513;42.700;23.124;2023-03-01T10:58:59;3.20;;;2.80;;
10717;SDS011;13513;42.700;23.124;2023-03-01T11:01:33;4.10;;;3.10;;
10717;SDS011;13513;42.700;23.124;2023-03-01T11:04:11;4.97;;;3.07;;
10717;SDS011;13513;42.700;23.124;2023-03-01T11:06:41;3.13;;;2.73;;
10717;SDS011;13513;42.700;23.124;2023-03-01T11:09:15;3.53;;;3.00;;
10717;SDS011;13513;42.700;23.124;2023-03-01T11:11:55;5.30;;;3.13;;
10717;SDS011;13513;42.700;23.124;2023-03-01T11:14:36;3.90;;;3.10;;
10717;SDS011;13513;42.700;23.124;2023-03-01T11:17:23;3.00;;;2.50;;
10717;SDS011;13513;42.700;23.124;2023-03-01T11:22:45;7.90;;;3.93;;
10717;SDS011;13513;42.700;23.124;2023-03-01T11:25:20;3.70;;;3.37;;
10717;SDS011;13513;42.700;23.124;2023-03-01T11:27:54;4.50;;;4.07;;
10717;SDS011;13513;42.700;23.124;2023-03-01T11:30:31;4.53;;;3.87;;
10717;SDS011;13513;42.700;23.124;2023-03-01T11:39:05;2.93;;;2.33;;
10717;SDS011;13513;42.700;23.124;2023-03-01T11:41:52;4.07;;;3.20;;
10717;SDS011;13513;42.700;23.124;2023-03-01T11:44:26;4.67;;;3.20;;
10717;SDS011;13513;42.700;23.124;2023-03-01T11:50:00;6.47;;;4.27;;
10717;SDS011;13513;42.700;23.124;2023-03-01T11:55:36;3.20;;;2.60;;
10717;SDS011;13513;42.700;23.124;2023-03-01T11:58:12;5.40;;;4.23;;
10717;SDS011;13513;42.700;23.124;2023-03-01T12:00:59;2.43;;;2.10;;
10717;SDS011;13513;42.700;23.124;2023-03-01T12:06:47;5.93;;;2.97;;
10717;SDS011;13513;42.700;23.124;2023-03-01T12:12:29;4.47;;;3.23;;
10717;SDS011;13513;42.700;23.124;2023-03-01T12:15:18;2.80;;;2.50;;
10717;SDS011;13513;42.700;23.124;2023-03-01T12:29:34;3.67;;;2.60;;
10717;SDS011;13513;42.700;23.124;2023-03-01T12:37:41;8.10;;;5.13;;
10717;SDS011;13513;42.700;23.124;2023-03-01T12:45:44;4.90;;;3.63;;
10717;SDS011;13513;42.700;23.124;2023-03-01T12:48:24;3.43;;;2.80;;
10717;SDS011;13513;42.700;23.124;2023-03-01T12:51:06;4.37;;;3.67;;
10717;SDS011;13513;42.700;23.124;2023-03-01T12:53:40;4.87;;;3.73;;
10717;SDS011;13513;42.700;23.124;2023-03-01T12:56:20;9.03;;;3.77;;
10717;SDS011;13513;42.700;23.124;2023-03-01T12:58:51;10.77;;;4.77;;
10717;SDS011;13513;42.700;23.124;2023-03-01T13:01:42;8.20;;;4.20;;
10717;SDS011;13513;42.700;23.124;2023-03-01T13:04:18;5.20;;;4.10;;
10717;SDS011;13513;42.700;23.124;2023-03-01T13:07:04;4.40;;;3.77;;
10717;SDS011;13513;42.700;23.124;2023-03-01T13:09:47;7.53;;;3.67;;
10717;SDS011;13513;42.700;23.124;2023-03-01T13:15:12;5.70;;;4.30;;
10717;SDS011;13513;42.700;23.124;2023-03-01T13:17:43;20.77;;;8.50;;
10717;SDS011;13513;42.700;23.124;2023-03-01T13:20:18;19.30;;;7.57;;
10717;SDS011;13513;42.700;23.124;2023-03-01T13:22:47;6.47;;;4.30;;
10717;SDS011;13513;42.700;23.124;2023-03-01T13:25:19;6.60;;;3.77;;
10717;SDS011;13513;42.700;23.124;2023-03-01T13:27:52;7.03;;;4.80;;
10717;SDS011;13513;42.700;23.124;2023-03-01T13:35:54;4.30;;;3.60;;
10717;SDS011;13513;42.700;23.124;2023-03-01T13:38:38;6.30;;;3.63;;
10717;SDS011;13513;42.700;23.124;2023-03-01T13:41:16;6.97;;;4.43;;
10717;SDS011;13513;42.700;23.124;2023-03-01T13:43:50;6.97;;;4.40;;
10717;SDS011;13513;42.700;23.124;2023-03-01T13:46:21;5.50;;;4.50;;
10717;SDS011;13513;42.700;23.124;2023-03-01T13:48:53;5.83;;;3.63;;
10717;SDS011;13513;42.700;23.124;2023-03-01T13:51:27;4.23;;;3.47;;
10717;SDS011;13513;42.700;23.124;2023-03-01T13:53:59;5.07;;;4.03;;
10717;SDS011;13513;42.700;23.124;2023-03-01T13:56:36;6.03;;;3.50;;
10717;SDS011;13513;42.700;23.124;2023-03-01T13:59:16;4.37;;;3.97;;
10717;SDS011;13513;42.700;23.124;2023-03-01T14:01:55;4.90;;;4.03;;
10717;SDS011;13513;42.700;23.124;2023-03-01T14:04:28;3.90;;;3.23;;
10717;SDS011;13513;42.700;23.124;2023-03-01T14:09:52;11.00;;;4.87;;
10717;SDS011;13513;42.700;23.124;2023-03-01T14:12:26;3.93;;;2.77;;
10717;SDS011;13513;42.700;23.124;2023-03-01T14:15:06;5.67;;;3.53;;
10717;SDS011;13513;42.700;23.124;2023-03-01T14:17:41;5.60;;;3.47;;
10717;SDS011;13513;42.700;23.124;2023-03-01T14:20:21;4.67;;;3.90;;
10717;SDS011;13513;42.700;23.124;2023-03-01T14:23:01;3.53;;;3.20;;
10717;SDS011;13513;42.700;23.124;2023-03-01T14:25:32;4.87;;;4.20;;
10717;SDS011;13513;42.700;23.124;2023-03-01T14:28:14;4.77;;;3.83;;
10717;SDS011;13513;42.700;23.124;2023-03-01T14:30:52;4.17;;;3.20;;
10717;SDS011;13513;42.700;23.124;2023-03-01T14:36:06;6.23;;;4.37;;
10717;SDS011;13513;42.700;23.124;2023-03-01T14:38:42;5.97;;;4.30;;
10717;SDS011;13513;42.700;23.124;2023-03-01T14:43:58;9.23;;;5.70;;
10717;SDS011;13513;42.700;23.124;2023-03-01T14:46:33;7.27;;;4.83;;
10717;SDS011;13513;42.700;23.124;2023-03-01T14:49:11;6.97;;;4.70;;
10717;SDS011;13513;42.700;23.124;2023-03-01T14:51:37;6.17;;;4.90;;
10717;SDS011;13513;42.700;23.124;2023-03-01T14:54:20;7.03;;;4.63;;
10717;SDS011;13513;42.700;23.124;2023-03-01T14:56:50;9.57;;;5.03;;
10717;SDS011;13513;42.700;23.124;2023-03-01T14:59:22;5.70;;;4.13;;
10717;SDS011;13513;42.700;23.124;2023-03-01T15:01:53;6.67;;;4.80;;
10717;SDS011;13513;42.700;23.124;2023-03-01T15:04:24;8.80;;;4.07;;
10717;SDS011;13513;42.700;23.124;2023-03-01T15:06:56;5.33;;;4.67;;
10717;SDS011;13513;42.700;23.124;2023-03-01T15:09:28;6.13;;;4.67;;
10717;SDS011;13513;42.700;23.124;2023-03-01T15:11:59;8.00;;;5.07;;
10717;SDS011;13513;42.700;23.124;2023-03-01T15:14:43;9.13;;;5.97;;
10717;SDS011;13513;42.700;23.124;2023-03-01T15:17:26;10.83;;;6.17;;
10717;SDS011;13513;42.700;23.124;2023-03-01T15:20:00;8.67;;;5.53;;
10717;SDS011;13513;42.700;23.124;2023-03-01T15:22:31;10.10;;;4.77;;
10717;SDS011;13513;42.700;23.124;2023-03-01T15:25:02;7.47;;;4.37;;
10717;SDS011;13513;42.700;23.124;2023-03-01T15:27:33;6.40;;;3.97;;
10717;SDS011;13513;42.700;23.124;2023-03-01T15:30:04;7.10;;;4.77;;
10717;SDS011;13513;42.700;23.124;2023-03-01T15:32:36;6.17;;;4.20;;
10717;SDS011;13513;42.700;23.124;2023-03-01T15:40:58;5.13;;;4.00;;
10717;SDS011;13513;42.700;23.124;2023-03-01T15:43:44;5.37;;;4.27;;
10717;SDS011;13513;42.700;23.124;2023-03-01T15:46:20;5.20;;;3.57;;
10717;SDS011;13513;42.700;23.124;2023-03-01T15:49:00;9.70;;;4.53;;
10717;SDS011;13513;42.700;23.124;2023-03-01T15:51:35;7.37;;;4.47;;
10717;SDS011;13513;42.700;23.124;2023-03-01T15:54:17;5.80;;;4.17;;
10717;SDS011;13513;42.700;23.124;2023-03-01T15:56:43;5.43;;;3.90;;
10717;SDS011;13513;42.700;23.124;2023-03-01T15:59:15;9.07;;;4.30;;
10717;SDS011;13513;42.700;23.124;2023-03-01T16:01:46;7.13;;;5.40;;
10717;SDS011;13513;42.700;23.124;2023-03-01T16:04:17;8.27;;;4.87;;
10717;SDS011;13513;42.700;23.124;2023-03-01T16:06:51;5.33;;;4.47;;
10717;SDS011;13513;42.700;23.124;2023-03-01T16:09:23;5.53;;;3.63;;
10717;SDS011;13513;42.700;23.124;2023-03-01T16:11:55;7.63;;;4.50;;
10717;SDS011;13513;42.700;23.124;2023-03-01T16:14:26;6.53;;;4.30;;
10717;SDS011;13513;42.700;23.124;2023-03-01T16:16:57;6.47;;;4.60;;
10717;SDS011;13513;42.700;23.124;2023-03-01T16:19:28;5.63;;;3.80;;
10717;SDS011;13513;42.700;23.124;2023-03-01T16:21:58;5.60;;;3.77;;
10717;SDS011;13513;42.700;23.124;2023-03-01T16:24:29;6.23;;;4.60;;
10717;SDS011;13513;42.700;23.124;2023-03-01T16:27:00;8.03;;;4.47;;
10717;SDS011;13513;42.700;23.124;2023-03-01T16:29:31;5.80;;;4.27;;
10717;SDS011;13513;42.700;23.124;2023-03-01T16:32:02;6.67;;;4.53;;
10717;SDS011;13513;42.700;23.124;2023-03-01T16:34:32;7.30;;;4.13;;
10717;SDS011;13513;42.700;23.124;2023-03-01T16:37:03;8.37;;;4.23;;
10717;SDS011;13513;42.700;23.124;2023-03-01T16:39:34;8.27;;;4.23;;